Airport View

Enter AWOS ICAO identifier for current METAR.

ex. KFNL

KOKV 210035Z AUTO 00000KT 10SM CLR 17/12 A3020 RMK AO2

21 Sep 2019 00:56

Frequency: 124.85

Phone: 540-662-6970

Other Area AWOS: KFRR - KMRB - KJYO - KLUA

TAF KMRB 202320Z 2100/2124 VRB03KT P6SM FEW250 FM210300 VRB03KT P6SM FEW050 FEW250 FM211500 18004KT P6SM FEW050 SCT250